Time,TemperatureF,DewpointF,PressureIn,WindDirection,WindDirectionDegrees,WindSpeedMPH,WindSpeedGustMPH,Humidity,HourlyPrecipIn,Conditions,Clouds,dailyrainin,SoftwareType,DateUTC
2013-11-30 00:01:00,19.2,18.0,30.50,ESE,113,0.0,0.0,95,0.00,CLR,,0.00,WeatherDisplay:10.37,2013-11-30 05:01:00,
2013-11-30 00:06:00,19.6,18.4,30.50,ESE,113,0.0,0.0,95,0.00,CLR,,0.00,WeatherDisplay:10.37,2013-11-30 05:06:00,
2013-11-30 00:11:00,19.9,18.7,30.50,ESE,113,0.0,0.0,95,0.00,CLR,,0.00,WeatherDisplay:10.37,2013-11-30 05:11:00,
2013-11-30 00:16:00,19.9,18.7,30.50,ESE,113,0.0,0.0,95,0.00,CLR,,0.00,WeatherDisplay:10.37,2013-11-30 05:16:00,
2013-11-30 00:21:00,19.9,18.7,30.50,ESE,113,0.0,0.0,95,0.00,CLR,,0.00,WeatherDisplay:10.37,2013-11-30 05:21:00,
2013-11-30 00:26:00,20.1,18.9,30.50,ESE,113,0.0,0.0,95,0.00,CLR,,0.00,WeatherDisplay:10.37,2013-11-30 05:26:00,
2013-11-30 00:31:00,19.9,18.7,30.50,ESE,113,0.0,0.0,95,0.00,CLR,,0.00,WeatherDisplay:10.37,2013-11-30 05:31:00,
2013-11-30 00:36:00,20.1,18.9,30.50,ESE,113,0.0,0.0,95,0.00,CLR,,0.00,WeatherDisplay:10.37,2013-11-30 05:36:00,
2013-11-30 00:41:00,20.3,19.1,30.50,ESE,113,0.0,0.0,95,0.00,CLR,,0.00,WeatherDisplay:10.37,2013-11-30 05:41:00,
2013-11-30 00:46:00,20.3,19.1,30.50,ESE,113,0.0,0.0,95,0.00,CLR,,0.00,WeatherDisplay:10.37,2013-11-30 05:46:00,
2013-11-30 00:51:00,20.3,19.1,30.50,ESE,113,0.0,0.0,95,0.00,CLR,,0.00,WeatherDisplay:10.37,2013-11-30 05:51:00,
2013-11-30 00:56:00,20.3,19.1,30.50,ESE,113,0.0,0.0,95,0.00,CLR,,0.00,WeatherDisplay:10.37,2013-11-30 05:56:00,
2013-11-30 01:01:00,20.3,19.1,30.50,ESE,113,0.0,0.0,95,0.00,CLR,,0.00,WeatherDisplay:10.37,2013-11-30 06:01:00,
2013-11-30 01:06:00,20.1,18.9,30.50,ESE,113,0.0,0.0,95,0.00,CLR,,0.00,WeatherDisplay:10.37,2013-11-30 06:06:00,
2013-11-30 01:11:00,20.1,18.9,30.50,ESE,113,0.0,0.0,95,0.00,CLR,,0.00,WeatherDisplay:10.37,2013-11-30 06:11:00,
2013-11-30 01:16:00,20.3,19.3,30.50,ESE,113,0.0,0.0,96,0.00,CLR,,0.00,WeatherDisplay:10.37,2013-11-30 06:16:00,
2013-11-30 01:21:00,20.1,18.9,30.50,ESE,113,0.0,0.0,95,0.00,CLR,,0.00,WeatherDisplay:10.37,2013-11-30 06:21:00,
2013-11-30 01:26:00,20.1,19.2,30.50,ESE,113,0.0,0.0,96,0.00,CLR,,0.00,WeatherDisplay:10.37,2013-11-30 06:26:00,
2013-11-30 01:31:00,20.3,19.3,30.50,ESE,113,0.0,0.0,96,0.00,CLR,,0.00,WeatherDisplay:10.37,2013-11-30 06:31:00,
2013-11-30 01:36:00,20.3,19.3,30.50,ESE,113,0.0,0.0,96,0.00,CLR,,0.00,WeatherDisplay:10.37,2013-11-30 06:36:00,
2013-11-30 01:41:00,20.3,19.3,30.50,ESE,113,0.0,0.0,96,0.00,CLR,,0.00,WeatherDisplay:10.37,2013-11-30 06:41:00,
2013-11-30 01:46:00,20.3,19.3,30.50,ESE,113,0.0,0.0,96,0.00,CLR,,0.00,WeatherDisplay:10.37,2013-11-30 06:46:00,
2013-11-30 01:51:00,20.5,19.5,30.50,ESE,113,0.0,0.0,96,0.00,CLR,,0.00,WeatherDisplay:10.37,2013-11-30 06:51:00,
2013-11-30 01:56:00,20.7,19.7,30.50,ESE,113,0.0,0.0,96,0.00,CLR,,0.00,WeatherDisplay:10.37,2013-11-30 06:56:00,
2013-11-30 02:01:00,20.7,19.7,30.50,ESE,113,0.0,0.0,96,0.00,FEW,,0.00,WeatherDisplay:10.37,2013-11-30 07:01:00,
2013-11-30 02:06:00,20.8,19.9,30.50,ESE,113,0.0,0.0,96,0.00,FEW,,0.00,WeatherDisplay:10.37,2013-11-30 07:06:00,
2013-11-30 02:11:00,21.0,20.1,30.50,ESE,113,0.0,0.0,96,0.00,FEW,,0.00,WeatherDisplay:10.37,2013-11-30 07:11:00,
2013-11-30 02:16:00,21.2,20.2,30.50,ESE,113,0.0,0.0,96,0.00,FEW,,0.00,WeatherDisplay:10.37,2013-11-30 07:16:00,
2013-11-30 02:21:00,21.0,20.1,30.50,ESE,113,0.0,0.0,96,0.00,FEW,,0.00,WeatherDisplay:10.37,2013-11-30 07:21:00,
2013-11-30 02:26:00,21.0,20.1,30.50,ESE,113,0.0,0.0,96,0.00,FEW,,0.00,WeatherDisplay:10.37,2013-11-30 07:26:00,
2013-11-30 02:31:00,21.0,20.1,30.50,ESE,113,0.0,0.0,96,0.00,FEW,,0.00,WeatherDisplay:10.37,2013-11-30 07:31:00,
2013-11-30 02:36:00,20.8,19.9,30.50,ESE,113,0.0,0.0,96,0.00,FEW,,0.00,WeatherDisplay:10.37,2013-11-30 07:36:00,
2013-11-30 02:41:00,20.7,19.7,30.50,ESE,113,0.0,0.0,96,0.00,FEW,,0.00,WeatherDisplay:10.37,2013-11-30 07:41:00,
2013-11-30 02:46:00,20.5,19.5,30.50,ESE,113,0.0,0.0,96,0.00,FEW,,0.00,WeatherDisplay:10.37,2013-11-30 07:46:00,
2013-11-30 02:51:00,20.5,19.5,30.50,ESE,113,0.0,0.0,96,0.00,FEW,,0.00,WeatherDisplay:10.37,2013-11-30 07:51:00,
2013-11-30 02:56:00,20.7,19.7,30.48,ESE,113,0.0,0.0,96,0.00,FEW,,0.00,WeatherDisplay:10.37,2013-11-30 07:56:00,
2013-11-30 03:01:00,20.5,19.5,30.48,ESE,113,0.0,0.0,96,0.00,CLR,,0.00,WeatherDisplay:10.37,2013-11-30 08:01:00,
2013-11-30 03:06:00,20.3,19.3,30.48,ESE,113,0.0,0.0,96,0.00,CLR,,0.00,WeatherDisplay:10.37,2013-11-30 08:06:00,
2013-11-30 03:11:00,20.3,19.3,30.48,ESE,113,0.0,0.0,96,0.00,CLR,,0.00,WeatherDisplay:10.37,2013-11-30 08:11:00,
2013-11-30 03:16:00,20.1,19.2,30.48,ESE,113,0.0,0.0,96,0.00,CLR,,0.00,WeatherDisplay:10.37,2013-11-30 08:16:00,
2013-11-30 03:21:00,20.1,19.2,30.48,ESE,113,0.0,0.0,96,0.00,CLR,,0.00,WeatherDisplay:10.37,2013-11-30 08:21:00,
2013-11-30 03:26:00,19.9,19.0,30.48,ESE,113,0.0,0.0,96,0.00,CLR,,0.00,WeatherDisplay:10.37,2013-11-30 08:26:00,
2013-11-30 03:31:00,19.8,18.8,30.48,ESE,113,0.0,0.0,96,0.00,CLR,,0.00,WeatherDisplay:10.37,2013-11-30 08:31:00,
2013-11-30 03:36:00,19.9,19.0,30.48,ESE,113,0.0,0.0,96,0.00,CLR,,0.00,WeatherDisplay:10.37,2013-11-30 08:36:00,
2013-11-30 03:41:00,19.9,19.0,30.48,ESE,113,0.0,0.0,96,0.00,CLR,,0.00,WeatherDisplay:10.37,2013-11-30 08:41:00,
2013-11-30 03:46:00,19.9,19.0,30.48,ESE,113,0.0,0.0,96,0.00,CLR,,0.00,WeatherDisplay:10.37,2013-11-30 08:46:00,
2013-11-30 03:51:00,19.9,19.0,30.48,ESE,113,0.0,0.0,96,0.00,CLR,,0.00,WeatherDisplay:10.37,2013-11-30 08:51:00,
2013-11-30 03:56:00,19.8,18.8,30.48,ESE,113,0.0,0.0,96,0.00,CLR,,0.00,WeatherDisplay:10.37,2013-11-30 08:56:00,
2013-11-30 04:01:00,19.6,18.6,30.48,ESE,113,0.0,0.0,96,0.00,CLR,,0.00,WeatherDisplay:10.37,2013-11-30 09:01:00,
2013-11-30 04:07:00,19.4,18.4,30.48,ESE,113,0.0,0.0,96,0.00,CLR,,0.00,WeatherDisplay:10.37,2013-11-30 09:07:00,
2013-11-30 04:12:00,19.4,18.4,30.48,ESE,113,0.0,0.0,96,0.00,CLR,,0.00,WeatherDisplay:10.37,2013-11-30 09:12:00,
2013-11-30 04:17:00,19.2,18.3,30.48,ESE,113,0.0,0.0,96,0.00,CLR,,0.00,WeatherDisplay:10.37,2013-11-30 09:17:00,
2013-11-30 04:22:00,19.2,18.3,30.48,ESE,113,0.0,0.0,96,0.00,CLR,,0.00,WeatherDisplay:10.37,2013-11-30 09:22:00,
2013-11-30 04:27:00,19.0,18.1,30.48,ESE,113,0.0,0.0,96,0.00,CLR,,0.00,WeatherDisplay:10.37,2013-11-30 09:27:00,
2013-11-30 04:32:00,18.9,17.9,30.48,ESE,113,0.0,0.0,96,0.00,CLR,,0.00,WeatherDisplay:10.37,2013-11-30 09:32:00,
2013-11-30 04:37:00,18.9,17.9,30.48,ESE,113,0.0,0.0,96,0.00,CLR,,0.00,WeatherDisplay:10.37,2013-11-30 09:37:00,
2013-11-30 04:42:00,18.9,17.9,30.48,ESE,113,0.0,0.0,96,0.00,CLR,,0.00,WeatherDisplay:10.37,2013-11-30 09:42:00,
2013-11-30 04:47:00,18.9,17.9,30.48,ESE,113,0.0,0.0,96,0.00,CLR,,0.00,WeatherDisplay:10.37,2013-11-30 09:47:00,
2013-11-30 04:52:00,19.0,18.1,30.48,ESE,113,0.0,0.0,96,0.00,CLR,,0.00,WeatherDisplay:10.37,2013-11-30 09:52:00,
2013-11-30 04:57:00,19.2,18.3,30.48,ESE,113,0.0,0.0,96,0.00,CLR,,0.00,WeatherDisplay:10.37,2013-11-30 09:57:00,
2013-11-30 05:02:00,19.2,18.3,30.48,ESE,113,0.0,0.0,96,0.00,CLR,,0.00,WeatherDisplay:10.37,2013-11-30 10:02:00,
2013-11-30 05:07:00,19.2,18.3,30.48,ESE,113,0.0,0.0,96,0.00,CLR,,0.00,WeatherDisplay:10.37,2013-11-30 10:07:00,
2013-11-30 05:12:00,19.4,18.4,30.48,ESE,113,0.0,0.0,96,0.00,CLR,,0.00,WeatherDisplay:10.37,2013-11-30 10:12:00,
2013-11-30 05:17:00,19.2,18.3,30.48,ESE,113,0.0,0.0,96,0.00,CLR,,0.00,WeatherDisplay:10.37,2013-11-30 10:17:00,
2013-11-30 05:22:00,19.2,18.3,30.48,ESE,113,0.0,0.0,96,0.00,CLR,,0.00,WeatherDisplay:10.37,2013-11-30 10:22:00,
2013-11-30 05:27:00,19.2,18.3,30.48,ESE,113,0.0,0.0,96,0.00,CLR,,0.00,WeatherDisplay:10.37,2013-11-30 10:27:00,
2013-11-30 05:32:00,19.4,18.4,30.48,ESE,113,0.0,0.0,96,0.00,CLR,,0.00,WeatherDisplay:10.37,2013-11-30 10:32:00,
2013-11-30 05:37:00,19.2,18.3,30.48,ESE,113,0.0,0.0,96,0.00,CLR,,0.00,WeatherDisplay:10.37,2013-11-30 10:37:00,
2013-11-30 05:42:00,19.2,18.3,30.48,ESE,113,0.0,0.0,96,0.00,CLR,,0.00,WeatherDisplay:10.37,2013-11-30 10:42:00,
2013-11-30 05:47:00,19.0,18.1,30.48,ESE,113,0.0,0.0,96,0.00,CLR,,0.00,WeatherDisplay:10.37,2013-11-30 10:47:00,
2013-11-30 05:52:00,19.0,18.1,30.48,ESE,113,0.0,0.0,96,0.00,CLR,,0.00,WeatherDisplay:10.37,2013-11-30 10:52:00,
2013-11-30 05:57:00,18.9,17.9,30.44,ESE,113,0.0,0.0,96,0.00,CLR,,0.00,WeatherDisplay:10.37,2013-11-30 10:57:00,
2013-11-30 06:02:00,18.9,17.9,30.44,ESE,113,0.0,0.0,96,0.00,CLR,,0.00,WeatherDisplay:10.37,2013-11-30 11:02:00,
2013-11-30 06:07:00,18.7,17.7,30.44,ESE,113,0.0,0.0,96,0.00,CLR,,0.00,WeatherDisplay:10.37,2013-11-30 11:07:00,
2013-11-30 06:12:00,18.7,17.7,30.44,ESE,113,0.0,0.0,96,0.00,CLR,,0.00,WeatherDisplay:10.37,2013-11-30 11:12:00,
2013-11-30 06:17:00,18.7,17.7,30.44,ESE,113,0.0,0.0,96,0.00,CLR,,0.00,WeatherDisplay:10.37,2013-11-30 11:17:00,
2013-11-30 06:22:00,18.7,17.7,30.44,ESE,113,0.0,0.0,96,0.00,CLR,,0.00,WeatherDisplay:10.37,2013-11-30 11:22:00,
2013-11-30 06:27:00,18.7,17.7,30.44,ESE,113,0.0,0.0,96,0.00,CLR,,0.00,WeatherDisplay:10.37,2013-11-30 11:27:00,
2013-11-30 06:32:00,18.7,17.5,30.44,ESE,113,0.0,0.0,95,0.00,CLR,,0.00,WeatherDisplay:10.37,2013-11-30 11:32:00,
2013-11-30 06:37:00,18.5,17.3,30.44,ESE,113,0.0,0.0,95,0.00,CLR,,0.00,WeatherDisplay:10.37,2013-11-30 11:37:00,
2013-11-30 06:42:00,18.5,17.3,30.44,ESE,113,0.0,0.0,95,0.00,CLR,,0.00,WeatherDisplay:10.37,2013-11-30 11:42:00,
2013-11-30 06:47:00,18.7,17.5,30.44,ESE,113,0.0,0.0,95,0.00,CLR,,0.00,WeatherDisplay:10.37,2013-11-30 11:47:00,
2013-11-30 06:52:00,18.7,17.5,30.44,ESE,113,0.0,0.0,95,0.00,CLR,,0.00,WeatherDisplay:10.37,2013-11-30 11:52:00,
2013-11-30 06:57:00,18.7,17.5,30.44,ESE,113,0.0,0.0,95,0.00,CLR,,0.00,WeatherDisplay:10.37,2013-11-30 11:57:00,
2013-11-30 07:02:00,18.7,17.5,30.44,ESE,113,0.0,0.0,95,0.00,CLR,,0.00,WeatherDisplay:10.37,2013-11-30 12:02:00,
2013-11-30 07:07:00,18.7,17.5,30.44,ESE,113,0.0,0.0,95,0.00,CLR,,0.00,WeatherDisplay:10.37,2013-11-30 12:07:00,
2013-11-30 07:12:00,18.5,17.3,30.44,ESE,113,0.0,0.0,95,0.00,CLR,,0.00,WeatherDisplay:10.37,2013-11-30 12:12:00,
2013-11-30 07:17:00,18.5,17.3,30.44,ESE,113,0.0,0.0,95,0.00,CLR,,0.00,WeatherDisplay:10.37,2013-11-30 12:17:00,
2013-11-30 07:22:00,18.5,17.3,30.44,ESE,113,0.0,0.0,95,0.00,CLR,,0.00,WeatherDisplay:10.37,2013-11-30 12:22:00,
2013-11-30 07:27:00,18.9,17.7,30.44,ESE,113,0.0,0.0,95,0.00,CLR,,0.00,WeatherDisplay:10.37,2013-11-30 12:27:00,
2013-11-30 07:32:00,19.0,17.8,30.44,ESE,113,0.0,0.0,95,0.00,CLR,,0.00,WeatherDisplay:10.37,2013-11-30 12:32:00,
2013-11-30 07:37:00,19.2,18.0,30.44,ESE,113,0.0,0.0,95,0.00,CLR,,0.00,WeatherDisplay:10.37,2013-11-30 12:37:00,
2013-11-30 07:42:00,19.4,18.2,30.44,ESE,113,0.0,0.0,95,0.00,CLR,,0.00,WeatherDisplay:10.37,2013-11-30 12:42:00,
2013-11-30 07:47:00,19.6,18.4,30.44,ESE,113,0.0,0.0,95,0.00,CLR,,0.00,WeatherDisplay:10.37,2013-11-30 12:47:00,
2013-11-30 07:52:00,19.8,18.6,30.44,ESE,113,0.0,0.0,95,0.00,CLR,,0.00,WeatherDisplay:10.37,2013-11-30 12:52:00,
2013-11-30 07:57:00,20.1,18.9,30.44,ESE,113,0.0,0.0,95,0.00,CLR,,0.00,WeatherDisplay:10.37,2013-11-30 12:57:00,
2013-11-30 08:02:00,20.3,18.8,30.44,ESE,113,0.0,0.0,94,0.00,CLR,,0.00,WeatherDisplay:10.37,2013-11-30 13:02:00,
2013-11-30 08:07:00,20.5,19.0,30.44,ESE,113,0.0,0.0,94,0.00,CLR,,0.00,WeatherDisplay:10.37,2013-11-30 13:07:00,
2013-11-30 08:12:00,20.5,18.8,30.44,ESE,113,0.0,0.0,93,0.00,CLR,,0.00,WeatherDisplay:10.37,2013-11-30 13:12:00,
2013-11-30 08:17:00,20.5,18.8,30.44,ESE,113,0.0,0.0,93,0.00,CLR,,0.00,WeatherDisplay:10.37,2013-11-30 13:17:00,
2013-11-30 08:22:00,20.5,18.8,30.44,ESE,113,0.0,0.0,93,0.00,CLR,,0.00,WeatherDisplay:10.37,2013-11-30 13:22:00,
2013-11-30 08:27:00,20.7,19.0,30.44,ESE,113,0.0,0.0,93,0.00,CLR,,0.00,WeatherDisplay:10.37,2013-11-30 13:27:00,
2013-11-30 08:32:00,20.8,19.1,30.44,ESE,113,0.0,0.0,93,0.00,CLR,,0.00,WeatherDisplay:10.37,2013-11-30 13:32:00,
2013-11-30 08:37:00,21.0,19.3,30.44,ESE,113,0.0,0.0,93,0.00,CLR,,0.00,WeatherDisplay:10.37,2013-11-30 13:37:00,
2013-11-30 08:42:00,21.2,19.2,30.44,ESE,113,0.0,0.0,92,0.00,CLR,,0.00,WeatherDisplay:10.37,2013-11-30 13:42:00,
2013-11-30 08:47:00,21.2,19.2,30.44,ESE,113,0.0,0.0,92,0.00,CLR,,0.00,WeatherDisplay:10.37,2013-11-30 13:47:00,
2013-11-30 08:52:00,21.2,19.2,30.44,ESE,113,0.0,0.0,92,0.00,CLR,,0.00,WeatherDisplay:10.37,2013-11-30 13:52:00,
2013-11-30 08:57:00,21.4,19.4,30.44,ESE,113,0.0,0.0,92,0.00,CLR,,0.00,WeatherDisplay:10.37,2013-11-30 13:57:00,
2013-11-30 09:02:00,21.4,19.4,30.44,ESE,113,0.0,0.0,92,0.00,CLR,,0.00,WeatherDisplay:10.37,2013-11-30 14:02:00,
2013-11-30 09:07:00,21.4,19.2,30.44,ESE,113,0.0,0.0,91,0.00,CLR,,0.00,WeatherDisplay:10.37,2013-11-30 14:07:00,
2013-11-30 09:12:00,21.6,19.3,30.44,ESE,113,0.0,0.0,91,0.00,CLR,,0.00,WeatherDisplay:10.37,2013-11-30 14:12:00,
2013-11-30 09:17:00,21.7,19.5,30.44,ESE,113,0.0,0.0,91,0.00,CLR,,0.00,WeatherDisplay:10.37,2013-11-30 14:17:00,
2013-11-30 09:22:00,21.7,19.5,30.44,ESE,113,0.0,0.0,91,0.00,CLR,,0.00,WeatherDisplay:10.37,2013-11-30 14:22:00,
2013-11-30 09:27:00,21.9,19.7,30.44,ESE,113,0.0,0.0,91,0.00,CLR,,0.00,WeatherDisplay:10.37,2013-11-30 14:27:00,
2013-11-30 09:32:00,22.1,19.9,30.44,ESE,113,0.0,0.0,91,0.00,CLR,,0.00,WeatherDisplay:10.37,2013-11-30 14:32:00,
2013-11-30 09:37:00,22.3,20.1,30.42,ESE,113,0.0,0.0,91,0.00,CLR,,0.00,WeatherDisplay:10.37,2013-11-30 14:37:00,
2013-11-30 09:42:00,22.6,20.4,30.42,ESE,113,0.0,0.0,91,0.00,CLR,,0.00,WeatherDisplay:10.37,2013-11-30 14:42:00,
2013-11-30 09:47:00,22.8,20.6,30.42,ESE,113,0.0,0.0,91,0.00,CLR,,0.00,WeatherDisplay:10.37,2013-11-30 14:47:00,
2013-11-30 09:52:00,23.2,20.9,30.42,ESE,113,0.0,0.0,91,0.00,CLR,,0.00,WeatherDisplay:10.37,2013-11-30 14:52:00,
2013-11-30 09:57:00,23.4,21.1,30.42,ESE,113,0.0,0.0,91,0.00,CLR,,0.00,WeatherDisplay:10.37,2013-11-30 14:57:00,
2013-11-30 10:02:00,23.5,21.0,30.42,ESE,113,0.0,0.0,90,0.00,CLR,,0.00,WeatherDisplay:10.37,2013-11-30 15:02:00,
2013-11-30 10:07:00,23.9,21.4,30.42,ESE,113,0.0,0.0,90,0.00,CLR,,0.00,WeatherDisplay:10.37,2013-11-30 15:07:00,
2013-11-30 10:13:00,23.9,21.4,30.42,ESE,113,0.0,0.0,90,0.00,CLR,,0.00,WeatherDisplay:10.37,2013-11-30 15:13:00,
2013-11-30 10:18:00,24.1,21.6,30.42,ESE,113,0.0,0.0,90,0.00,CLR,,0.00,WeatherDisplay:10.37,2013-11-30 15:18:00,
2013-11-30 10:23:00,24.4,21.9,30.42,ESE,113,0.0,0.0,90,0.00,CLR,,0.00,WeatherDisplay:10.37,2013-11-30 15:23:00,
2013-11-30 10:28:00,24.6,22.1,30.42,ESE,113,0.0,0.0,90,0.00,CLR,,0.00,WeatherDisplay:10.37,2013-11-30 15:28:00,
2013-11-30 10:33:00,24.8,22.0,30.42,ESE,113,0.0,0.0,89,0.00,CLR,,0.00,WeatherDisplay:10.37,2013-11-30 15:33:00,
2013-11-30 10:38:00,25.0,22.2,30.42,ESE,113,0.0,0.0,89,0.00,CLR,,0.00,WeatherDisplay:10.37,2013-11-30 15:38:00,
2013-11-30 10:43:00,25.2,22.4,30.42,ESE,113,0.0,0.0,89,0.00,CLR,,0.00,WeatherDisplay:10.37,2013-11-30 15:43:00,
2013-11-30 10:48:00,25.2,22.4,30.42,ESE,113,0.0,0.0,89,0.00,CLR,,0.00,WeatherDisplay:10.37,2013-11-30 15:48:00,
2013-11-30 10:53:00,25.0,21.9,30.42,ESE,113,0.0,0.0,88,0.00,CLR,,0.00,WeatherDisplay:10.37,2013-11-30 15:53:00,
2013-11-30 10:58:00,24.8,21.8,30.42,ESE,113,0.0,0.0,88,0.00,CLR,,0.00,WeatherDisplay:10.37,2013-11-30 15:58:00,
2013-11-30 11:03:00,24.8,21.8,30.42,ESE,113,0.0,0.0,88,0.00,CLR,,0.00,WeatherDisplay:10.37,2013-11-30 16:03:00,
2013-11-30 11:08:00,24.8,21.5,30.42,ESE,113,0.0,0.0,87,0.00,CLR,,0.00,WeatherDisplay:10.37,2013-11-30 16:08:00,
2013-11-30 11:13:00,25.0,21.7,30.42,ESE,113,0.0,0.0,87,0.00,CLR,,0.00,WeatherDisplay:10.37,2013-11-30 16:13:00,
2013-11-30 11:18:00,25.3,22.0,30.42,ESE,113,0.0,0.0,87,0.00,CLR,,0.00,WeatherDisplay:10.37,2013-11-30 16:18:00,
2013-11-30 11:23:00,25.3,22.0,30.39,ESE,113,0.0,0.0,87,0.00,CLR,,0.00,WeatherDisplay:10.37,2013-11-30 16:23:00,
2013-11-30 11:28:00,25.5,21.9,30.39,ESE,113,0.0,0.0,86,0.00,CLR,,0.00,WeatherDisplay:10.37,2013-11-30 16:28:00,
2013-11-30 11:33:00,26.1,22.4,30.39,ESE,113,0.0,0.0,86,0.00,CLR,,0.00,WeatherDisplay:10.37,2013-11-30 16:33:00,
2013-11-30 11:38:00,26.2,22.9,30.39,ESE,113,0.0,0.0,87,0.00,CLR,,0.00,WeatherDisplay:10.37,2013-11-30 16:38:00,
2013-11-30 11:43:00,26.4,22.8,30.39,ESE,113,0.0,0.0,86,0.00,CLR,,0.00,WeatherDisplay:10.37,2013-11-30 16:43:00,
2013-11-30 11:48:00,26.6,23.3,30.39,ESE,113,0.0,0.0,87,0.00,CLR,,0.00,WeatherDisplay:10.37,2013-11-30 16:48:00,
2013-11-30 11:53:00,27.0,23.3,30.39,ESE,113,0.0,0.0,86,0.00,CLR,,0.00,WeatherDisplay:10.37,2013-11-30 16:53:00,
2013-11-30 11:58:00,27.0,23.1,30.39,ESE,113,0.0,0.0,85,0.00,CLR,,0.00,WeatherDisplay:10.37,2013-11-30 16:58:00,
2013-11-30 12:03:00,27.0,23.1,30.39,ESE,113,0.0,0.0,85,0.00,CLR,,0.00,WeatherDisplay:10.37,2013-11-30 17:03:00,
2013-11-30 12:08:00,26.8,22.9,30.39,ESE,113,0.0,0.0,85,0.00,CLR,,0.00,WeatherDisplay:10.37,2013-11-30 17:08:00,
2013-11-30 12:13:00,27.0,23.1,30.39,ESE,113,0.0,0.0,85,0.00,CLR,,0.00,WeatherDisplay:10.37,2013-11-30 17:13:00,
2013-11-30 12:18:00,27.0,23.1,30.39,ESE,113,0.0,0.0,85,0.00,CLR,,0.00,WeatherDisplay:10.37,2013-11-30 17:18:00,
2013-11-30 12:23:00,26.6,22.4,30.36,ESE,113,0.0,0.0,84,0.00,CLR,,0.00,WeatherDisplay:10.37,2013-11-30 17:23:00,
2013-11-30 12:28:00,26.6,22.7,30.36,ESE,113,0.0,0.0,85,0.00,CLR,,0.00,WeatherDisplay:10.37,2013-11-30 17:28:00,
2013-11-30 12:33:00,26.6,22.7,30.36,ESE,113,0.0,0.0,85,0.00,CLR,,0.00,WeatherDisplay:10.37,2013-11-30 17:33:00,
2013-11-30 12:38:00,26.6,22.7,30.36,ESE,113,0.0,0.0,85,0.00,CLR,,0.00,WeatherDisplay:10.37,2013-11-30 17:38:00,
2013-11-30 12:43:00,26.6,23.0,30.36,ESE,113,0.0,0.0,86,0.00,CLR,,0.00,WeatherDisplay:10.37,2013-11-30 17:43:00,
2013-11-30 12:48:00,26.6,23.0,30.36,ESE,113,0.0,0.0,86,0.00,CLR,,0.00,WeatherDisplay:10.37,2013-11-30 17:48:00,
2013-11-30 12:53:00,26.6,23.0,30.36,ESE,113,0.0,0.0,86,0.00,CLR,,0.00,WeatherDisplay:10.37,2013-11-30 17:53:00,
2013-11-30 12:58:00,26.8,23.2,30.36,ESE,113,0.0,0.0,86,0.00,CLR,,0.00,WeatherDisplay:10.37,2013-11-30 17:58:00,
2013-11-30 13:03:00,27.0,23.6,30.36,ESE,113,0.0,0.0,87,0.00,FEW,,0.00,WeatherDisplay:10.37,2013-11-30 18:03:00,
2013-11-30 13:08:00,27.1,23.8,30.36,ESE,113,0.0,0.0,87,0.00,FEW,,0.00,WeatherDisplay:10.37,2013-11-30 18:08:00,
2013-11-30 13:13:00,27.3,24.0,30.36,ESE,113,0.0,0.0,87,0.00,FEW,,0.00,WeatherDisplay:10.37,2013-11-30 18:13:00,
2013-11-30 13:18:00,27.5,24.1,30.36,ESE,113,0.0,0.0,87,0.00,FEW,,0.00,WeatherDisplay:10.37,2013-11-30 18:18:00,
2013-11-30 13:23:00,27.7,24.3,30.33,ESE,113,0.0,0.0,87,0.00,FEW,,0.00,WeatherDisplay:10.37,2013-11-30 18:23:00,
2013-11-30 13:28:00,27.9,24.5,30.33,ESE,113,0.0,0.0,87,0.00,FEW,,0.00,WeatherDisplay:10.37,2013-11-30 18:28:00,
2013-11-30 13:33:00,27.9,24.5,30.33,ESE,113,0.0,0.0,87,0.00,FEW,,0.00,WeatherDisplay:10.37,2013-11-30 18:33:00,
2013-11-30 13:38:00,27.9,24.5,30.33,ESE,113,0.0,0.0,87,0.00,FEW,,0.00,WeatherDisplay:10.37,2013-11-30 18:38:00,
2013-11-30 13:43:00,28.0,24.7,30.33,ESE,113,0.0,0.0,87,0.00,FEW,,0.00,WeatherDisplay:10.37,2013-11-30 18:43:00,
2013-11-30 13:48:00,28.2,24.6,30.33,ESE,113,0.0,0.0,86,0.00,FEW,,0.00,WeatherDisplay:10.37,2013-11-30 18:48:00,
2013-11-30 13:53:00,28.2,24.6,30.33,ESE,113,0.0,0.0,86,0.00,FEW,,0.00,WeatherDisplay:10.37,2013-11-30 18:53:00,
2013-11-30 13:58:00,28.0,24.4,30.33,ESE,113,0.0,0.0,86,0.00,FEW,,0.00,WeatherDisplay:10.37,2013-11-30 18:58:00,
2013-11-30 14:03:00,27.9,23.9,30.33,ESE,113,0.0,0.0,85,0.00,CLR,,0.00,WeatherDisplay:10.37,2013-11-30 19:03:00,
2013-11-30 14:08:00,27.9,23.9,30.30,ESE,113,0.0,0.0,85,0.00,CLR,,0.00,WeatherDisplay:10.37,2013-11-30 19:08:00,
2013-11-30 14:13:00,27.7,24.0,30.30,ESE,113,0.0,0.0,86,0.00,CLR,,0.00,WeatherDisplay:10.37,2013-11-30 19:13:00,
2013-11-30 14:18:00,27.7,24.0,30.30,ESE,113,0.0,0.0,86,0.00,CLR,,0.00,WeatherDisplay:10.37,2013-11-30 19:18:00,
2013-11-30 14:23:00,27.9,24.5,30.30,ESE,113,0.0,0.0,87,0.00,CLR,,0.00,WeatherDisplay:10.37,2013-11-30 19:23:00,
2013-11-30 14:28:00,27.9,24.5,30.30,ESE,113,0.0,0.0,87,0.00,CLR,,0.00,WeatherDisplay:10.37,2013-11-30 19:28:00,
2013-11-30 14:33:00,27.9,24.5,30.30,ESE,113,0.0,0.0,87,0.00,CLR,,0.00,WeatherDisplay:10.37,2013-11-30 19:33:00,
2013-11-30 14:38:00,27.7,24.3,30.30,ESE,113,0.0,0.0,87,0.00,CLR,,0.00,WeatherDisplay:10.37,2013-11-30 19:38:00,
2013-11-30 14:43:00,27.5,24.1,30.30,ESE,113,0.0,0.0,87,0.00,CLR,,0.00,WeatherDisplay:10.37,2013-11-30 19:43:00,
2013-11-30 14:48:00,27.5,24.1,30.30,ESE,113,0.0,0.0,87,0.00,CLR,,0.00,WeatherDisplay:10.37,2013-11-30 19:48:00,
2013-11-30 14:53:00,27.5,24.1,30.30,ESE,113,0.0,0.0,87,0.00,CLR,,0.00,WeatherDisplay:10.37,2013-11-30 19:53:00,
2013-11-30 14:58:00,27.5,24.1,30.30,ESE,113,0.0,0.0,87,0.00,CLR,,0.00,WeatherDisplay:10.37,2013-11-30 19:58:00,
2013-11-30 15:03:00,27.3,24.0,30.30,ESE,113,0.0,0.0,87,0.00,BKN,,0.00,WeatherDisplay:10.37,2013-11-30 20:03:00,
2013-11-30 15:08:00,27.1,23.8,30.30,ESE,113,0.0,0.0,87,0.00,BKN,,0.00,WeatherDisplay:10.37,2013-11-30 20:08:00,
2013-11-30 15:14:00,27.0,23.6,30.30,ESE,113,0.0,0.0,87,0.00,BKN,,0.00,WeatherDisplay:10.37,2013-11-30 20:14:00,
2013-11-30 15:19:00,27.0,23.6,30.30,ESE,113,0.0,0.0,87,0.00,BKN,,0.00,WeatherDisplay:10.37,2013-11-30 20:19:00,
2013-11-30 15:24:00,27.0,23.6,30.27,ESE,113,0.0,0.0,87,0.00,BKN,,0.00,WeatherDisplay:10.37,2013-11-30 20:24:00,
2013-11-30 15:29:00,27.0,23.6,30.27,ESE,113,0.0,0.0,87,0.00,BKN,,0.00,WeatherDisplay:10.37,2013-11-30 20:29:00,
2013-11-30 15:34:00,26.8,23.4,30.27,ESE,113,0.0,0.0,87,0.00,BKN,,0.00,WeatherDisplay:10.37,2013-11-30 20:34:00,
2013-11-30 15:39:00,26.8,23.4,30.27,ESE,113,0.0,0.0,87,0.00,BKN,,0.00,WeatherDisplay:10.37,2013-11-30 20:39:00,
2013-11-30 15:44:00,26.6,23.3,30.27,ESE,113,0.0,0.0,87,0.00,BKN,,0.00,WeatherDisplay:10.37,2013-11-30 20:44:00,
2013-11-30 15:49:00,26.6,23.5,30.27,ESE,113,0.0,0.0,88,0.00,BKN,,0.00,WeatherDisplay:10.37,2013-11-30 20:49:00,
2013-11-30 15:54:00,26.6,23.5,30.27,ESE,113,0.0,0.0,88,0.00,BKN,,0.00,WeatherDisplay:10.37,2013-11-30 20:54:00,
2013-11-30 15:59:00,26.4,23.3,30.27,ESE,113,0.0,0.0,88,0.00,BKN,,0.00,WeatherDisplay:10.37,2013-11-30 20:59:00,
2013-11-30 16:04:00,26.4,23.3,30.27,ESE,113,0.0,0.0,88,0.00,BKN,,0.00,WeatherDisplay:10.37,2013-11-30 21:04:00,
2013-11-30 16:09:00,26.4,23.3,30.27,ESE,113,0.0,0.0,88,0.00,BKN,,0.00,WeatherDisplay:10.37,2013-11-30 21:09:00,
2013-11-30 16:14:00,26.2,23.2,30.27,ESE,113,0.0,0.0,88,0.00,BKN,,0.00,WeatherDisplay:10.37,2013-11-30 21:14:00,
2013-11-30 16:19:00,26.2,23.2,30.27,ESE,113,0.0,0.0,88,0.00,BKN,,0.00,WeatherDisplay:10.37,2013-11-30 21:19:00,
2013-11-30 16:24:00,26.2,23.2,30.27,ESE,113,0.0,0.0,88,0.00,BKN,,0.00,WeatherDisplay:10.37,2013-11-30 21:24:00,
2013-11-30 16:29:00,26.2,23.2,30.27,ESE,113,0.0,0.0,88,0.00,BKN,,0.00,WeatherDisplay:10.37,2013-11-30 21:29:00,
2013-11-30 16:34:00,26.2,23.2,30.27,ESE,113,0.0,0.0,88,0.00,BKN,,0.00,WeatherDisplay:10.37,2013-11-30 21:34:00,
2013-11-30 16:39:00,26.1,23.3,30.27,ESE,113,0.0,0.0,89,0.00,BKN,,0.00,WeatherDisplay:10.37,2013-11-30 21:39:00,
2013-11-30 16:44:00,26.1,23.3,30.27,ESE,113,0.0,0.0,89,0.00,BKN,,0.00,WeatherDisplay:10.37,2013-11-30 21:44:00,
2013-11-30 16:49:00,25.7,22.9,30.27,ESE,113,0.0,0.0,89,0.00,BKN,,0.00,WeatherDisplay:10.37,2013-11-30 21:49:00,
2013-11-30 16:54:00,25.5,22.7,30.27,ESE,113,0.0,0.0,89,0.00,BKN,,0.00,WeatherDisplay:10.37,2013-11-30 21:54:00,
2013-11-30 16:59:00,25.3,22.6,30.27,ESE,113,0.0,0.0,89,0.00,BKN,,0.00,WeatherDisplay:10.37,2013-11-30 21:59:00,
2013-11-30 17:04:00,25.3,22.6,30.27,ESE,113,0.0,0.0,89,0.00,FEW,,0.00,WeatherDisplay:10.37,2013-11-30 22:04:00,
2013-11-30 17:09:00,25.2,22.4,30.27,ESE,113,0.0,0.0,89,0.00,FEW,,0.00,WeatherDisplay:10.37,2013-11-30 22:09:00,
2013-11-30 17:14:00,25.0,22.2,30.27,ESE,113,0.0,0.0,89,0.00,FEW,,0.00,WeatherDisplay:10.37,2013-11-30 22:14:00,
2013-11-30 17:19:00,24.8,22.0,30.27,ESE,113,0.0,0.0,89,0.00,FEW,,0.00,WeatherDisplay:10.37,2013-11-30 22:19:00,
2013-11-30 17:24:00,24.6,21.8,30.27,ESE,113,0.0,0.0,89,0.00,FEW,,0.00,WeatherDisplay:10.37,2013-11-30 22:24:00,
2013-11-30 17:29:00,24.4,21.7,30.27,ESE,113,0.0,0.0,89,0.00,FEW,,0.00,WeatherDisplay:10.37,2013-11-30 22:29:00,
2013-11-30 17:34:00,24.1,21.3,30.27,ESE,113,0.0,0.0,89,0.00,FEW,,0.00,WeatherDisplay:10.37,2013-11-30 22:34:00,
2013-11-30 17:39:00,23.9,21.4,30.24,ESE,113,0.0,0.0,90,0.00,FEW,,0.00,WeatherDisplay:10.37,2013-11-30 22:39:00,
2013-11-30 17:44:00,23.9,21.4,30.24,ESE,113,0.0,0.0,90,0.00,FEW,,0.00,WeatherDisplay:10.37,2013-11-30 22:44:00,
2013-11-30 17:49:00,23.9,21.4,30.24,ESE,113,0.0,0.0,90,0.00,FEW,,0.00,WeatherDisplay:10.37,2013-11-30 22:49:00,
2013-11-30 17:54:00,23.5,21.0,30.24,ESE,113,0.0,0.0,90,0.00,FEW,,0.00,WeatherDisplay:10.37,2013-11-30 22:54:00,
2013-11-30 17:59:00,23.4,20.9,30.24,ESE,113,0.0,0.0,90,0.00,FEW,,0.00,WeatherDisplay:10.37,2013-11-30 22:59:00,
2013-11-30 18:04:00,23.2,20.7,30.24,ESE,113,0.0,0.0,90,0.00,CLR,,0.00,WeatherDisplay:10.37,2013-11-30 23:04:00,
2013-11-30 18:09:00,23.2,20.9,30.24,ESE,113,0.0,0.0,91,0.00,CLR,,0.00,WeatherDisplay:10.37,2013-11-30 23:09:00,
2013-11-30 18:14:00,22.8,20.6,30.24,ESE,113,0.0,0.0,91,0.00,CLR,,0.00,WeatherDisplay:10.37,2013-11-30 23:14:00,
2013-11-30 18:19:00,22.6,20.4,30.24,ESE,113,0.0,0.0,91,0.00,CLR,,0.00,WeatherDisplay:10.37,2013-11-30 23:19:00,
2013-11-30 18:24:00,22.3,20.1,30.24,ESE,113,0.0,0.0,91,0.00,CLR,,0.00,WeatherDisplay:10.37,2013-11-30 23:24:00,
2013-11-30 18:29:00,22.1,19.9,30.24,ESE,113,0.0,0.0,91,0.00,CLR,,0.00,WeatherDisplay:10.37,2013-11-30 23:29:00,
2013-11-30 18:34:00,21.9,19.7,30.24,ESE,113,0.0,0.0,91,0.00,CLR,,0.00,WeatherDisplay:10.37,2013-11-30 23:34:00,
2013-11-30 18:39:00,21.9,19.7,30.24,ESE,113,0.0,0.0,91,0.00,CLR,,0.00,WeatherDisplay:10.37,2013-11-30 23:39:00,
2013-11-30 18:44:00,21.7,19.5,30.24,ESE,113,0.0,0.0,91,0.00,CLR,,0.00,WeatherDisplay:10.37,2013-11-30 23:44:00,
2013-11-30 18:49:00,21.7,19.5,30.24,ESE,113,0.0,0.0,91,0.00,CLR,,0.00,WeatherDisplay:10.37,2013-11-30 23:49:00,
2013-11-30 18:54:00,21.6,19.3,30.24,ESE,113,0.0,0.0,91,0.00,CLR,,0.00,WeatherDisplay:10.37,2013-11-30 23:54:00,
2013-11-30 18:59:00,21.4,19.2,30.24,ESE,113,0.0,0.0,91,0.00,CLR,,0.00,WeatherDisplay:10.37,2013-11-30 23:59:00,
2013-11-30 19:04:00,21.2,19.2,30.24,ESE,113,0.0,0.0,92,0.00,CLR,,0.00,WeatherDisplay:10.37,2013-12-01 00:04:00,
2013-11-30 19:09:00,21.2,19.2,30.24,ESE,113,0.0,0.0,92,0.00,CLR,,0.00,WeatherDisplay:10.37,2013-12-01 00:09:00,
2013-11-30 19:14:00,21.2,19.2,30.24,ESE,113,0.0,0.0,92,0.00,CLR,,0.00,WeatherDisplay:10.37,2013-12-01 00:14:00,
2013-11-30 19:19:00,21.6,19.6,30.24,ESE,113,0.0,0.0,92,0.00,CLR,,0.00,WeatherDisplay:10.37,2013-12-01 00:19:00,
2013-11-30 19:24:00,21.7,19.8,30.24,ESE,113,0.0,0.0,92,0.00,CLR,,0.00,WeatherDisplay:10.37,2013-12-01 00:24:00,
2013-11-30 19:29:00,21.7,20.0,30.24,ESE,113,0.0,0.0,93,0.00,CLR,,0.00,WeatherDisplay:10.37,2013-12-01 00:29:00,
2013-11-30 19:34:00,22.1,20.4,30.24,ESE,113,0.0,0.0,93,0.00,CLR,,0.00,WeatherDisplay:10.37,2013-12-01 00:34:00,
2013-11-30 19:39:00,22.3,20.6,30.24,ESE,113,0.0,0.0,93,0.00,CLR,,0.00,WeatherDisplay:10.37,2013-12-01 00:39:00,
2013-11-30 19:44:00,22.5,20.7,30.24,ESE,113,0.0,0.0,93,0.00,CLR,,0.00,WeatherDisplay:10.37,2013-12-01 00:44:00,
2013-11-30 19:49:00,22.6,20.9,30.24,ESE,113,0.0,0.0,93,0.00,CLR,,0.00,WeatherDisplay:10.37,2013-12-01 00:49:00,
2013-11-30 19:54:00,23.0,21.5,30.24,ESE,113,0.0,0.0,94,0.00,CLR,,0.00,WeatherDisplay:10.37,2013-12-01 00:54:00,
2013-11-30 19:59:00,23.2,21.5,30.24,ESE,113,0.0,0.0,93,0.00,CLR,,0.00,WeatherDisplay:10.37,2013-12-01 00:59:00,
2013-11-30 20:04:00,23.5,22.1,30.24,ESE,113,0.0,0.0,94,0.00,CLR,,0.00,WeatherDisplay:10.37,2013-12-01 01:04:00,
2013-11-30 20:09:00,23.7,22.2,30.24,ESE,113,0.0,0.0,94,0.00,CLR,,0.00,WeatherDisplay:10.37,2013-12-01 01:09:00,
2013-11-30 20:14:00,23.7,22.0,30.24,ESE,113,0.0,0.0,93,0.00,CLR,,0.00,WeatherDisplay:10.37,2013-12-01 01:14:00,
2013-11-30 20:19:00,23.9,22.4,30.24,ESE,113,0.0,0.0,94,0.00,CLR,,0.00,WeatherDisplay:10.37,2013-12-01 01:19:00,
2013-11-30 20:24:00,23.7,22.0,30.21,ESE,113,0.0,0.0,93,0.00,CLR,,0.00,WeatherDisplay:10.37,2013-12-01 01:24:00,
2013-11-30 20:30:00,23.9,22.4,30.21,ESE,113,0.0,0.0,94,0.00,CLR,,0.00,WeatherDisplay:10.37,2013-12-01 01:30:00,
2013-11-30 20:35:00,23.9,22.4,30.21,ESE,113,0.0,0.0,94,0.00,CLR,,0.00,WeatherDisplay:10.37,2013-12-01 01:35:00,
2013-11-30 20:40:00,24.1,22.6,30.21,ESE,113,0.0,0.0,94,0.00,CLR,,0.00,WeatherDisplay:10.37,2013-12-01 01:40:00,
2013-11-30 20:43:00,24.3,22.8,30.21,ESE,113,0.0,0.0,94,0.00,CLR,,0.00,WeatherDisplay:10.37,2013-12-01 01:43:00,
2013-11-30 20:48:00,24.4,23.0,30.21,ESE,113,0.0,0.0,94,0.00,CLR,,0.00,WeatherDisplay:10.37,2013-12-01 01:48:00,
2013-11-30 20:53:00,24.4,23.0,30.21,ESE,113,0.0,0.0,94,0.00,CLR,,0.00,WeatherDisplay:10.37,2013-12-01 01:53:00,
2013-11-30 20:58:00,24.4,23.0,30.21,ESE,113,0.0,0.0,94,0.00,CLR,,0.00,WeatherDisplay:10.37,2013-12-01 01:58:00,
2013-11-30 21:03:00,24.8,23.3,30.21,ESE,113,0.0,0.0,94,0.00,CLR,,0.00,WeatherDisplay:10.37,2013-12-01 02:03:00,
2013-11-30 21:08:00,24.8,23.3,30.21,ESE,113,0.0,0.0,94,0.00,CLR,,0.00,WeatherDisplay:10.37,2013-12-01 02:08:00,
2013-11-30 21:13:00,25.0,23.2,30.21,ESE,113,0.0,0.0,93,0.00,CLR,,0.00,WeatherDisplay:10.37,2013-12-01 02:13:00,
2013-11-30 21:18:00,25.2,23.4,30.21,ESE,113,0.0,0.0,93,0.00,CLR,,0.00,WeatherDisplay:10.37,2013-12-01 02:18:00,
2013-11-30 21:23:00,25.2,23.4,30.21,ESE,113,0.0,0.0,93,0.00,CLR,,0.00,WeatherDisplay:10.37,2013-12-01 02:23:00,
2013-11-30 21:28:00,25.2,23.4,30.21,ESE,113,0.0,0.0,93,0.00,CLR,,0.00,WeatherDisplay:10.37,2013-12-01 02:28:00,
2013-11-30 21:33:00,25.2,23.4,30.21,ESE,113,0.0,0.0,93,0.00,CLR,,0.00,WeatherDisplay:10.37,2013-12-01 02:33:00,
2013-11-30 21:38:00,25.3,23.6,30.21,ESE,113,0.0,0.0,93,0.00,CLR,,0.00,WeatherDisplay:10.37,2013-12-01 02:38:00,
2013-11-30 21:43:00,25.3,23.6,30.21,ESE,113,0.0,0.0,93,0.00,CLR,,0.00,WeatherDisplay:10.37,2013-12-01 02:43:00,
2013-11-30 21:48:00,25.3,23.6,30.21,ESE,113,0.0,0.0,93,0.00,CLR,,0.00,WeatherDisplay:10.37,2013-12-01 02:48:00,
2013-11-30 21:53:00,25.3,23.6,30.21,ESE,113,0.0,0.0,93,0.00,CLR,,0.00,WeatherDisplay:10.37,2013-12-01 02:53:00,
2013-11-30 21:58:00,25.3,23.6,30.21,ESE,113,0.0,0.0,93,0.00,CLR,,0.00,WeatherDisplay:10.37,2013-12-01 02:58:00,
2013-11-30 22:03:00,25.3,23.6,30.21,ESE,113,0.0,0.0,93,0.00,CLR,,0.00,WeatherDisplay:10.37,2013-12-01 03:03:00,
2013-11-30 22:08:00,25.3,23.6,30.21,ESE,113,0.0,0.0,93,0.00,CLR,,0.00,WeatherDisplay:10.37,2013-12-01 03:08:00,
2013-11-30 22:13:00,25.3,23.6,30.21,ESE,113,0.0,0.0,93,0.00,CLR,,0.00,WeatherDisplay:10.37,2013-12-01 03:13:00,
2013-11-30 22:18:00,25.3,23.6,30.21,ESE,113,0.0,0.0,93,0.00,CLR,,0.00,WeatherDisplay:10.37,2013-12-01 03:18:00,
2013-11-30 22:23:00,25.3,23.6,30.21,ESE,113,0.0,0.0,93,0.00,CLR,,0.00,WeatherDisplay:10.37,2013-12-01 03:23:00,
2013-11-30 22:28:00,25.2,23.4,30.21,ESE,113,0.0,0.0,93,0.00,CLR,,0.00,WeatherDisplay:10.37,2013-12-01 03:28:00,
2013-11-30 22:33:00,25.3,23.6,30.21,ESE,113,0.0,0.0,93,0.00,CLR,,0.00,WeatherDisplay:10.37,2013-12-01 03:33:00,
2013-11-30 22:38:00,25.3,23.6,30.18,ESE,113,0.0,0.0,93,0.00,CLR,,0.00,WeatherDisplay:10.37,2013-12-01 03:38:00,
2013-11-30 22:43:00,25.3,23.6,30.18,ESE,113,0.0,0.0,93,0.00,CLR,,0.00,WeatherDisplay:10.37,2013-12-01 03:43:00,
2013-11-30 22:48:00,25.3,23.6,30.18,ESE,113,0.0,0.0,93,0.00,CLR,,0.00,WeatherDisplay:10.37,2013-12-01 03:48:00,
2013-11-30 22:53:00,25.5,23.8,30.18,ESE,113,0.0,0.0,93,0.00,CLR,,0.00,WeatherDisplay:10.37,2013-12-01 03:53:00,
2013-11-30 22:58:00,25.5,23.8,30.18,ESE,113,0.0,0.0,93,0.00,CLR,,0.00,WeatherDisplay:10.37,2013-12-01 03:58:00,
2013-11-30 23:03:00,25.3,23.6,30.18,ESE,113,0.0,0.0,93,0.00,FEW,,0.00,WeatherDisplay:10.37,2013-12-01 04:03:00,
2013-11-30 23:08:00,25.3,23.6,30.18,ESE,113,0.0,0.0,93,0.00,FEW,,0.00,WeatherDisplay:10.37,2013-12-01 04:08:00,
2013-11-30 23:13:00,25.2,23.2,30.18,ESE,113,0.0,0.0,92,0.00,FEW,,0.00,WeatherDisplay:10.37,2013-12-01 04:13:00,
2013-11-30 23:18:00,24.6,22.6,30.18,ESE,113,0.0,0.0,92,0.00,FEW,,0.00,WeatherDisplay:10.37,2013-12-01 04:18:00,
2013-11-30 23:23:00,24.4,22.5,30.18,ESE,113,0.0,0.0,92,0.00,FEW,,0.00,WeatherDisplay:10.37,2013-12-01 04:23:00,
2013-11-30 23:28:00,24.3,22.3,30.18,ESE,113,0.0,0.0,92,0.00,FEW,,0.00,WeatherDisplay:10.37,2013-12-01 04:28:00,
2013-11-30 23:33:00,23.9,22.2,30.18,ESE,113,0.0,0.0,93,0.00,FEW,,0.00,WeatherDisplay:10.37,2013-12-01 04:33:00,
2013-11-30 23:38:00,23.7,22.0,30.18,ESE,113,0.0,0.0,93,0.00,FEW,,0.00,WeatherDisplay:10.37,2013-12-01 04:38:00,
2013-11-30 23:43:00,23.5,21.8,30.18,ESE,113,0.0,0.0,93,0.00,FEW,,0.00,WeatherDisplay:10.37,2013-12-01 04:43:00,
2013-11-30 23:48:00,23.5,21.8,30.18,ESE,113,0.0,0.0,93,0.00,FEW,,0.00,WeatherDisplay:10.37,2013-12-01 04:48:00,
2013-11-30 23:53:00,23.5,21.8,30.18,ESE,113,0.0,0.0,93,0.00,FEW,,0.00,WeatherDisplay:10.37,2013-12-01 04:53:00,
2013-11-30 23:58:00,23.5,21.8,30.18,ESE,113,0.0,0.0,93,0.00,FEW,,0.00,WeatherDisplay:10.37,2013-12-01 04:58:00,